Terminal Aerodrome Forecast
Issued by NWS Boston, MA

Home | Current Version | Previous Version | Text Only | Print | Product List | Glossary On
Versions: 1 2 3 4 5 6 7 8 9 10 11 12 13 14 15 16 17 18 19 20 21 22 23
000
FTUS41 KBOX 260130 AAA
TAFBOS
TAF AMD
KBOS 260130Z 2602/2706 23011KT P6SM SCT070 BKN120
     FM260201 32020G35KT 6SM SHRA BKN050
     FM260300 24007KT P6SM VCSH BKN060
     FM260600 27007KT P6SM FEW060
     FM261600 22010G18KT P6SM SCT050
     FM262000 22010G17KT P6SM BKN050
     FM270100 23008KT P6SM SCT060=

USA.gov is the U.S. government's official web portal to all federal, state and local government web resources and services.